createdAt,value
2023-01-12T00:01:16.137Z,66.40
2023-01-12T00:02:49.642Z,66.40
2023-01-12T00:04:21.933Z,66.50
2023-01-12T00:06:00.838Z,66.60
2023-01-12T00:07:34.019Z,66.70
2023-01-12T00:09:09.069Z,66.70
2023-01-12T00:10:42.298Z,66.80
2023-01-12T00:12:15.543Z,66.80
2023-01-12T00:13:49.147Z,67.20
2023-01-12T00:15:55.190Z,66.80
2023-01-12T00:17:28.656Z,66.60
2023-01-12T00:19:01.434Z,66.70
2023-01-12T00:20:34.527Z,66.70
2023-01-12T00:22:12.457Z,66.70
2023-01-12T00:23:44.908Z,66.90
2023-01-12T00:25:18.020Z,66.90
2023-01-12T00:26:50.413Z,66.80
2023-01-12T00:28:23.526Z,66.90
2023-01-12T00:29:58.138Z,66.90
2023-01-12T00:31:30.698Z,67.00
2023-01-12T00:33:04.898Z,67.10
2023-01-12T00:34:38.094Z,67.10
2023-01-12T00:36:13.763Z,67.10
2023-01-12T00:37:47.084Z,67.30
2023-01-12T00:39:21.247Z,67.20
2023-01-12T00:40:54.493Z,67.50
2023-01-12T00:42:45.399Z,67.40
2023-01-12T00:44:36.389Z,67.50
2023-01-12T00:46:11.131Z,67.40
2023-01-12T00:47:44.699Z,67.40
2023-01-12T00:49:17.424Z,67.80
2023-01-12T00:50:50.544Z,67.50
2023-01-12T00:52:32.036Z,67.30
2023-01-12T00:54:04.953Z,67.40
2023-01-12T00:55:38.075Z,67.40
2023-01-12T00:57:13.991Z,67.60
2023-01-12T00:58:47.006Z,67.60
2023-01-12T01:00:20.802Z,67.50
2023-01-12T01:01:54.481Z,67.50
2023-01-12T01:03:27.676Z,67.50
2023-01-12T01:05:01.323Z,67.50
2023-01-12T01:06:33.737Z,67.70
2023-01-12T01:08:07.575Z,67.60
2023-01-12T01:09:39.864Z,67.70
2023-01-12T01:11:15.276Z,67.50
2023-01-12T01:12:48.484Z,67.70
2023-01-12T01:14:22.057Z,67.60
2023-01-12T01:15:54.383Z,67.70
2023-01-12T01:17:29.926Z,67.60
2023-01-12T01:19:05.803Z,67.70
2023-01-12T01:20:38.872Z,67.80
2023-01-12T01:22:12.447Z,67.60
2023-01-12T01:23:45.285Z,67.80
2023-01-12T01:25:18.711Z,67.80
2023-01-12T01:26:52.398Z,67.80
2023-01-12T01:28:25.565Z,67.90
2023-01-12T01:29:58.687Z,67.80
2023-01-12T01:31:31.893Z,68.00
2023-01-12T01:33:06.379Z,68.00
2023-01-12T01:34:39.502Z,67.90
2023-01-12T01:36:12.628Z,67.90
2023-01-12T01:37:45.926Z,68.80
2023-01-12T01:39:18.433Z,67.90
2023-01-12T01:40:51.880Z,68.00
2023-01-12T01:42:29.393Z,68.00
2023-01-12T01:44:06.107Z,68.00
2023-01-12T01:45:39.438Z,68.20
2023-01-12T01:47:29.772Z,68.10
2023-01-12T01:49:25.272Z,68.30
2023-01-12T01:51:03.548Z,68.20
2023-01-12T01:52:42.971Z,68.10
2023-01-12T01:54:16.934Z,68.10
2023-01-12T01:55:53.528Z,68.00
2023-01-12T01:57:32.918Z,68.10
2023-01-12T01:59:12.349Z,68.00
2023-01-12T02:00:47.065Z,68.10
2023-01-12T02:02:19.823Z,68.10
2023-01-12T02:03:55.689Z,68.30
2023-01-12T02:05:30.655Z,68.40
2023-01-12T02:07:06.150Z,68.10
2023-01-12T02:08:47.676Z,68.20
2023-01-12T02:10:22.318Z,68.40
2023-01-12T02:12:14.294Z,68.20
2023-01-12T02:14:05.391Z,68.30
2023-01-12T02:16:09.973Z,68.60
2023-01-12T02:18:01.546Z,68.40
2023-01-12T02:20:09.458Z,68.40
2023-01-12T02:22:19.192Z,68.40
2023-01-12T02:24:52.668Z,68.40
2023-01-12T02:27:40.412Z,68.40
2023-01-12T02:29:51.421Z,68.30
2023-01-12T02:31:46.016Z,68.30
2023-01-12T02:33:38.225Z,68.10
2023-01-12T02:35:19.658Z,68.00
2023-01-12T02:37:04.167Z,68.20
2023-01-12T02:38:47.551Z,68.00
2023-01-12T02:40:32.877Z,67.80
2023-01-12T02:42:33.467Z,67.80
2023-01-12T02:44:10.530Z,67.80
2023-01-12T02:45:54.842Z,68.00
2023-01-12T02:47:45.078Z,67.80
2023-01-12T02:49:24.137Z,67.80
2023-01-12T02:51:07.553Z,67.90
2023-01-12T02:52:47.776Z,68.00
2023-01-12T02:54:24.379Z,68.10
2023-01-12T02:55:59.985Z,68.00
2023-01-12T02:57:36.115Z,68.10
2023-01-12T02:59:16.984Z,68.10
2023-01-12T03:00:56.251Z,68.20
2023-01-12T03:02:31.698Z,68.30
2023-01-12T03:04:10.064Z,68.40
2023-01-12T03:05:44.726Z,68.40
2023-01-12T03:07:46.911Z,68.30
2023-01-12T03:09:20.620Z,68.40
2023-01-12T03:11:15.167Z,68.10
2023-01-12T03:12:51.431Z,68.10
2023-01-12T03:14:25.100Z,68.70
2023-01-12T03:16:00.839Z,67.80
2023-01-12T03:17:41.769Z,68.00
2023-01-12T03:19:20.220Z,67.90
2023-01-12T03:20:59.506Z,67.90
2023-01-12T03:22:37.521Z,67.90
2023-01-12T03:24:14.018Z,67.90
2023-01-12T03:25:49.870Z,67.90
2023-01-12T03:27:30.803Z,68.00
2023-01-12T03:29:11.256Z,67.90
2023-01-12T03:30:53.425Z,67.90
2023-01-12T03:32:27.886Z,68.00
2023-01-12T03:34:02.952Z,68.00
2023-01-12T03:35:41.986Z,67.80
2023-01-12T03:37:26.817Z,67.90
2023-01-12T03:39:14.329Z,67.90
2023-01-12T03:40:57.170Z,67.90
2023-01-12T03:42:39.075Z,68.00
2023-01-12T03:44:21.568Z,67.80
2023-01-12T03:46:02.435Z,67.80
2023-01-12T03:47:37.881Z,67.80
2023-01-12T03:49:22.604Z,67.80
2023-01-12T03:51:01.990Z,67.70
2023-01-12T03:52:38.528Z,67.70
2023-01-12T03:54:14.684Z,67.70
2023-01-12T03:55:50.304Z,67.70
2023-01-12T03:57:24.337Z,67.70
2023-01-12T03:58:58.754Z,67.70
2023-01-12T04:00:32.160Z,68.40
2023-01-12T04:02:05.946Z,67.60
2023-01-12T04:03:39.515Z,67.60
2023-01-12T04:05:16.837Z,67.70
2023-01-12T04:06:50.146Z,67.70
2023-01-12T04:08:24.272Z,67.60
2023-01-12T04:09:58.196Z,67.80
2023-01-12T04:11:45.478Z,67.30
2023-01-12T04:13:18.981Z,67.60
2023-01-12T04:14:51.415Z,67.70
2023-01-12T04:16:24.956Z,67.70
2023-01-12T04:17:58.278Z,67.50
2023-01-12T04:19:33.396Z,67.30
2023-01-12T04:21:28.174Z,67.60
2023-01-12T04:23:00.503Z,67.00
2023-01-12T04:24:34.452Z,67.50
2023-01-12T04:26:08.000Z,67.50
2023-01-12T04:27:48.604Z,67.20
2023-01-12T04:29:20.786Z,67.60
2023-01-12T04:30:55.098Z,67.30
2023-01-12T04:32:27.282Z,67.10
2023-01-12T04:34:00.522Z,67.20
2023-01-12T04:35:33.659Z,67.10
2023-01-12T04:37:08.485Z,67.40
2023-01-12T04:38:47.095Z,67.60
2023-01-12T04:40:21.705Z,67.50
2023-01-12T04:41:54.945Z,67.60
2023-01-12T04:43:29.208Z,67.50
2023-01-12T04:45:02.631Z,67.40
2023-01-12T04:46:36.033Z,67.50
2023-01-12T04:48:12.223Z,67.70
2023-01-12T04:49:45.548Z,67.80
2023-01-12T04:51:19.231Z,67.60
2023-01-12T04:52:53.879Z,67.70
2023-01-12T04:54:27.076Z,67.80
2023-01-12T04:56:04.223Z,67.70
2023-01-12T04:57:37.531Z,67.90
2023-01-12T04:59:10.838Z,67.60
2023-01-12T05:00:44.271Z,67.70
2023-01-12T05:02:17.684Z,67.80
2023-01-12T05:03:50.946Z,67.90
2023-01-12T05:05:24.138Z,67.70
2023-01-12T05:06:57.437Z,67.80
2023-01-12T05:08:49.570Z,67.60
2023-01-12T05:10:24.396Z,67.70
2023-01-12T05:11:57.566Z,67.90
2023-01-12T05:13:32.847Z,67.60
2023-01-12T05:15:07.858Z,67.80
2023-01-12T05:16:41.161Z,67.80
2023-01-12T05:18:13.811Z,67.80
2023-01-12T05:19:48.362Z,67.70
2023-01-12T05:21:22.174Z,67.60
2023-01-12T05:22:55.452Z,67.70
2023-01-12T05:24:30.206Z,67.70
2023-01-12T05:26:05.819Z,67.60
2023-01-12T05:27:39.057Z,67.80
2023-01-12T05:29:13.204Z,67.70
2023-01-12T05:30:46.494Z,67.80
2023-01-12T05:32:19.905Z,67.80
2023-01-12T05:33:53.132Z,67.80
2023-01-12T05:35:26.323Z,67.80
2023-01-12T05:36:59.706Z,67.80
2023-01-12T05:38:32.985Z,67.90
2023-01-12T05:40:09.476Z,68.00
2023-01-12T05:42:03.866Z,68.10
2023-01-12T05:43:51.916Z,68.10
2023-01-12T05:45:24.321Z,68.10
2023-01-12T05:46:57.562Z,68.10
2023-01-12T05:48:31.917Z,68.20
2023-01-12T05:50:06.793Z,68.30
2023-01-12T05:51:39.854Z,68.40
2023-01-12T05:53:12.089Z,68.10
2023-01-12T05:54:45.243Z,68.00
2023-01-12T05:56:25.563Z,68.00
2023-01-12T05:58:00.836Z,69.00
2023-01-12T05:59:34.107Z,68.10
2023-01-12T06:01:08.978Z,68.00
2023-01-12T06:02:42.289Z,68.10
2023-01-12T06:04:15.729Z,68.10
2023-01-12T06:05:55.706Z,67.90
2023-01-12T06:07:29.049Z,67.80
2023-01-12T06:09:03.937Z,67.60
2023-01-12T06:10:39.204Z,67.70
2023-01-12T06:12:31.426Z,67.80
2023-01-12T06:14:04.390Z,67.80
2023-01-12T06:15:37.850Z,67.80
2023-01-12T06:17:11.024Z,67.60
2023-01-12T06:18:44.255Z,67.50
2023-01-12T06:20:17.944Z,67.50
2023-01-12T06:21:51.522Z,67.60
2023-01-12T06:23:34.983Z,67.40
2023-01-12T06:25:10.212Z,67.60
2023-01-12T06:26:45.126Z,67.50
2023-01-12T06:28:19.693Z,67.10
2023-01-12T06:29:52.928Z,67.50
2023-01-12T06:31:26.168Z,67.10
2023-01-12T06:33:04.531Z,67.00
2023-01-12T06:34:37.847Z,67.30
2023-01-12T06:36:12.437Z,67.10
2023-01-12T06:37:45.750Z,67.60
2023-01-12T06:39:19.129Z,67.20
2023-01-12T06:40:53.088Z,67.20
2023-01-12T06:42:28.838Z,67.20
2023-01-12T06:44:03.662Z,67.20
2023-01-12T06:45:36.995Z,67.10
2023-01-12T06:47:10.324Z,67.30
2023-01-12T06:48:43.525Z,67.20
2023-01-12T06:50:17.828Z,67.30
2023-01-12T06:51:51.420Z,67.60
2023-01-12T06:53:24.804Z,67.50
2023-01-12T06:54:59.211Z,67.50
2023-01-12T06:56:31.519Z,67.60
2023-01-12T06:58:05.361Z,67.60
2023-01-12T06:59:41.936Z,67.80
2023-01-12T07:01:15.506Z,67.70
2023-01-12T07:02:51.622Z,68.00
2023-01-12T07:04:25.790Z,68.00
2023-01-12T07:06:00.244Z,67.90
2023-01-12T07:07:33.609Z,68.90
2023-01-12T07:09:07.068Z,68.10
2023-01-12T07:10:40.860Z,68.10
2023-01-12T07:12:14.066Z,68.00
2023-01-12T07:13:47.272Z,68.00
2023-01-12T07:15:25.042Z,68.00
2023-01-12T07:16:58.658Z,68.20
2023-01-12T07:18:32.535Z,67.50
2023-01-12T07:20:07.425Z,67.90
2023-01-12T07:21:40.535Z,68.30
2023-01-12T07:23:13.859Z,68.40
2023-01-12T07:24:47.239Z,68.00
2023-01-12T07:26:20.750Z,68.00
2023-01-12T07:27:56.245Z,68.00
2023-01-12T07:29:28.562Z,68.40
2023-01-12T07:31:05.873Z,68.00
2023-01-12T07:32:39.157Z,68.30
2023-01-12T07:34:13.182Z,68.30
2023-01-12T07:35:46.366Z,68.30
2023-01-12T07:37:19.535Z,68.30
2023-01-12T07:38:52.718Z,68.30
2023-01-12T07:40:26.191Z,68.20
2023-01-12T07:42:17.166Z,68.30
2023-01-12T07:43:50.338Z,68.30
2023-01-12T07:45:23.577Z,68.30
2023-01-12T07:46:59.470Z,68.20
2023-01-12T07:48:33.205Z,68.10
2023-01-12T07:50:07.761Z,68.10
2023-01-12T07:51:41.032Z,68.30
2023-01-12T07:53:14.255Z,68.40
2023-01-12T07:54:47.451Z,68.40
2023-01-12T07:56:20.790Z,68.30
2023-01-12T07:57:57.870Z,68.30
2023-01-12T07:59:31.287Z,68.60
2023-01-12T08:01:03.830Z,68.60
2023-01-12T08:02:38.697Z,68.60
2023-01-12T08:04:12.083Z,68.70
2023-01-12T08:05:45.681Z,68.70
2023-01-12T08:07:19.719Z,68.80
2023-01-12T08:08:54.574Z,68.80
2023-01-12T08:10:28.495Z,68.90
2023-01-12T08:12:02.813Z,69.00
2023-01-12T08:13:38.256Z,68.70
2023-01-12T08:15:13.327Z,68.90
2023-01-12T08:16:49.732Z,68.90
2023-01-12T08:18:29.229Z,69.20
2023-01-12T08:20:12.594Z,68.90
2023-01-12T08:21:52.638Z,68.90
2023-01-12T08:23:33.786Z,69.00
2023-01-12T08:25:13.848Z,69.20
2023-01-12T08:26:51.740Z,69.20
2023-01-12T08:28:35.086Z,69.30
2023-01-12T08:30:10.805Z,69.20
2023-01-12T08:31:44.629Z,69.30
2023-01-12T08:33:18.894Z,69.40
2023-01-12T08:34:58.713Z,69.30
2023-01-12T08:36:35.558Z,69.40
2023-01-12T08:38:08.956Z,69.50
2023-01-12T08:39:42.349Z,69.40
2023-01-12T08:41:33.880Z,69.40
2023-01-12T08:43:07.183Z,69.50
2023-01-12T08:44:39.535Z,69.40
2023-01-12T08:46:12.782Z,69.40
2023-01-12T08:47:46.125Z,69.40
2023-01-12T08:49:24.402Z,69.40
2023-01-12T08:51:02.026Z,69.60
2023-01-12T08:52:36.332Z,69.50
2023-01-12T08:54:11.631Z,69.70
2023-01-12T08:55:44.834Z,70.00
2023-01-12T08:57:19.165Z,69.70
2023-01-12T08:58:52.824Z,69.80
2023-01-12T09:00:26.145Z,70.00
2023-01-12T09:01:59.921Z,69.90
2023-01-12T09:03:33.275Z,69.90
2023-01-12T09:05:07.866Z,70.00
2023-01-12T09:06:45.398Z,70.10
2023-01-12T09:08:18.782Z,70.30
2023-01-12T09:09:52.126Z,70.20
2023-01-12T09:11:27.274Z,70.20
2023-01-12T09:13:00.468Z,70.40
2023-01-12T09:14:38.647Z,70.30
2023-01-12T09:16:15.637Z,70.50
2023-01-12T09:17:53.974Z,70.70
2023-01-12T09:19:27.200Z,70.70
2023-01-12T09:21:07.312Z,70.50
2023-01-12T09:22:41.860Z,70.80
2023-01-12T09:24:16.537Z,70.70
2023-01-12T09:25:49.849Z,70.80
2023-01-12T09:27:23.067Z,70.80
2023-01-12T09:28:56.962Z,70.80
2023-01-12T09:30:30.163Z,70.90
2023-01-12T09:32:03.422Z,70.80
2023-01-12T09:33:38.274Z,70.80
2023-01-12T09:35:11.653Z,70.90
2023-01-12T09:36:45.499Z,70.80
2023-01-12T09:38:20.002Z,70.90
2023-01-12T09:39:53.278Z,70.70
2023-01-12T09:41:47.588Z,70.90
2023-01-12T09:43:39.096Z,71.00
2023-01-12T09:45:39.643Z,71.10
2023-01-12T09:47:22.423Z,71.20
2023-01-12T09:48:56.215Z,71.20
2023-01-12T09:50:35.653Z,70.90
2023-01-12T09:52:18.123Z,70.90
2023-01-12T09:53:52.793Z,71.10
2023-01-12T09:55:30.441Z,70.90
2023-01-12T09:57:28.784Z,71.00
2023-01-12T09:59:31.590Z,70.90
2023-01-12T10:01:24.116Z,70.90
2023-01-12T10:03:15.038Z,70.90
2023-01-12T10:04:51.434Z,70.90
2023-01-12T10:06:25.750Z,70.90
2023-01-12T10:07:59.062Z,70.70
2023-01-12T10:09:34.639Z,70.60
2023-01-12T10:11:23.813Z,71.00
2023-01-12T10:13:05.653Z,71.10
2023-01-12T10:15:00.836Z,71.00
2023-01-12T10:16:47.781Z,71.10
2023-01-12T10:18:31.789Z,71.20
2023-01-12T10:20:18.510Z,71.00
2023-01-12T10:21:54.344Z,71.10
2023-01-12T10:23:29.096Z,71.00
2023-01-12T10:25:14.290Z,71.00
2023-01-12T10:26:51.076Z,71.10
2023-01-12T10:28:29.896Z,71.00
2023-01-12T10:30:09.214Z,71.10
2023-01-12T10:31:45.540Z,71.00
2023-01-12T10:33:21.849Z,70.70
2023-01-12T10:34:55.397Z,70.80
2023-01-12T10:36:30.295Z,70.70
2023-01-12T10:38:22.946Z,71.00
2023-01-12T10:39:56.370Z,71.00
2023-01-12T10:41:33.100Z,70.90
2023-01-12T10:43:23.669Z,71.10
2023-01-12T10:45:14.569Z,71.20
2023-01-12T10:47:11.703Z,71.30
2023-01-12T10:48:47.476Z,71.30
2023-01-12T10:50:26.334Z,71.20
2023-01-12T10:52:03.307Z,71.30
2023-01-12T10:53:44.967Z,71.30
2023-01-12T10:55:23.414Z,71.30
2023-01-12T10:57:05.619Z,71.30
2023-01-12T10:58:38.973Z,71.40
2023-01-12T11:00:25.217Z,71.10
2023-01-12T11:02:16.754Z,71.40
2023-01-12T11:03:50.485Z,71.40
2023-01-12T11:05:38.214Z,71.30
2023-01-12T11:07:15.001Z,71.30
2023-01-12T11:08:48.149Z,71.20
2023-01-12T11:10:28.841Z,71.00
2023-01-12T11:12:05.879Z,71.20
2023-01-12T11:13:39.838Z,71.20
2023-01-12T11:15:19.927Z,71.30
2023-01-12T11:16:53.617Z,71.30
2023-01-12T11:18:40.506Z,71.10
2023-01-12T11:20:24.470Z,71.30
2023-01-12T11:22:07.423Z,71.40
2023-01-12T11:23:48.352Z,71.50
2023-01-12T11:25:26.102Z,71.60
2023-01-12T11:27:09.674Z,71.40
2023-01-12T11:28:48.876Z,71.50
2023-01-12T11:30:30.950Z,71.40
2023-01-12T11:32:13.735Z,71.40
2023-01-12T11:33:52.677Z,71.30
2023-01-12T11:35:37.143Z,71.30
2023-01-12T11:37:14.753Z,71.30
2023-01-12T11:38:51.764Z,71.40
2023-01-12T11:40:32.676Z,71.40
2023-01-12T11:42:35.772Z,71.50
2023-01-12T11:44:19.075Z,72.40
2023-01-12T11:46:01.437Z,71.70
2023-01-12T11:47:41.879Z,71.50
2023-01-12T11:49:19.026Z,71.40
2023-01-12T11:50:55.625Z,71.70
2023-01-12T11:52:30.576Z,71.40
2023-01-12T11:54:04.226Z,71.40
2023-01-12T11:56:00.980Z,71.40
2023-01-12T11:57:53.808Z,71.60
2023-01-12T11:59:37.380Z,71.50
2023-01-12T12:01:22.922Z,71.30
2023-01-12T12:03:19.167Z,71.50
2023-01-12T12:05:05.685Z,71.40
2023-01-12T12:06:56.377Z,71.30
2023-01-12T12:08:47.368Z,71.60
2023-01-12T12:10:27.646Z,71.40
2023-01-12T12:12:05.914Z,71.30
2023-01-12T12:13:54.881Z,71.40
2023-01-12T12:15:40.084Z,71.40
2023-01-12T12:17:21.078Z,71.40
2023-01-12T12:19:17.556Z,71.30
2023-01-12T12:21:08.723Z,71.50
2023-01-12T12:23:00.034Z,71.40
2023-01-12T12:25:07.765Z,71.50
2023-01-12T12:26:48.092Z,71.40
2023-01-12T12:29:02.953Z,71.30
2023-01-12T12:31:04.413Z,71.50
2023-01-12T12:32:49.788Z,71.50
2023-01-12T12:35:11.875Z,71.30
2023-01-12T12:36:54.636Z,71.30
2023-01-12T12:38:47.691Z,71.20
2023-01-12T12:40:56.206Z,71.10
2023-01-12T12:43:14.807Z,71.20
2023-01-12T12:45:17.986Z,71.30
2023-01-12T12:47:03.624Z,71.40
2023-01-12T12:48:49.820Z,71.40
2023-01-12T12:50:30.851Z,71.30
2023-01-12T12:52:05.821Z,71.30
2023-01-12T12:53:43.516Z,71.20
2023-01-12T12:55:17.677Z,71.30
2023-01-12T12:56:51.584Z,71.30
2023-01-12T12:58:41.206Z,71.50
2023-01-12T13:00:36.617Z,71.50
2023-01-12T13:02:40.985Z,71.50
2023-01-12T13:04:15.238Z,71.50
2023-01-12T13:05:52.943Z,71.20
2023-01-12T13:07:28.073Z,71.10
2023-01-12T13:09:05.489Z,71.10
2023-01-12T13:10:38.862Z,71.20
2023-01-12T13:12:32.924Z,71.10
2023-01-12T13:14:19.708Z,71.40
2023-01-12T13:16:41.265Z,71.20
2023-01-12T13:18:43.705Z,71.30
2023-01-12T13:21:05.462Z,71.20
2023-01-12T13:22:46.790Z,71.10
2023-01-12T13:24:41.315Z,71.20
2023-01-12T13:26:42.539Z,71.20
2023-01-12T13:28:20.937Z,71.20
2023-01-12T13:30:25.006Z,71.10
2023-01-12T13:32:20.782Z,71.00
2023-01-12T13:34:46.164Z,70.90
2023-01-12T13:36:32.099Z,71.90
2023-01-12T13:38:16.929Z,71.00
2023-01-12T13:40:01.068Z,71.10
2023-01-12T13:42:08.834Z,71.00
2023-01-12T13:43:50.820Z,71.10
2023-01-12T13:45:24.380Z,71.10
2023-01-12T13:47:08.893Z,71.10
2023-01-12T13:48:49.049Z,70.90
2023-01-12T13:50:27.321Z,70.80
2023-01-12T13:52:08.709Z,70.90
2023-01-12T13:53:42.558Z,70.90
2023-01-12T13:55:23.100Z,70.90
2023-01-12T13:57:00.086Z,71.00
2023-01-12T13:58:42.505Z,70.90
2023-01-12T14:00:23.641Z,70.90
2023-01-12T14:01:57.867Z,70.80
2023-01-12T14:04:01.246Z,70.60
2023-01-12T14:06:01.554Z,70.90
2023-01-12T14:07:52.741Z,70.70
2023-01-12T14:09:41.914Z,70.90
2023-01-12T14:11:57.258Z,70.90
2023-01-12T14:13:56.722Z,70.80
2023-01-12T14:15:54.387Z,70.90
2023-01-12T14:17:49.312Z,70.70
2023-01-12T14:19:29.759Z,70.60
2023-01-12T14:21:04.719Z,70.40
2023-01-12T14:22:37.943Z,70.40
2023-01-12T14:24:21.555Z,70.40
2023-01-12T14:26:13.202Z,70.40
2023-01-12T14:27:54.715Z,70.40
2023-01-12T14:29:28.467Z,70.40
2023-01-12T14:31:03.005Z,70.40
2023-01-12T14:32:36.291Z,70.40
2023-01-12T14:34:28.283Z,70.30
2023-01-12T14:36:12.201Z,70.50
2023-01-12T14:37:51.637Z,70.40
2023-01-12T14:39:28.674Z,70.40
2023-01-12T14:41:06.273Z,70.40
2023-01-12T14:42:57.259Z,70.50
2023-01-12T14:44:48.366Z,70.40
2023-01-12T14:46:33.427Z,70.40
2023-01-12T14:48:25.716Z,70.40
2023-01-12T14:50:14.679Z,70.30
2023-01-12T14:51:55.829Z,70.30
2023-01-12T14:53:41.827Z,70.10
2023-01-12T14:55:17.678Z,70.10
2023-01-12T14:56:56.452Z,70.20
2023-01-12T14:58:29.896Z,70.10
2023-01-12T15:00:06.918Z,70.00
2023-01-12T15:01:41.648Z,70.00
2023-01-12T15:03:28.810Z,69.90
2023-01-12T15:05:25.258Z,70.20
2023-01-12T15:07:07.039Z,70.10
2023-01-12T15:08:59.058Z,70.20
2023-01-12T15:10:37.903Z,70.10
2023-01-12T15:12:44.787Z,69.90
2023-01-12T15:14:25.914Z,69.90
2023-01-12T15:16:17.120Z,69.80
2023-01-12T15:18:10.116Z,69.80
2023-01-12T15:20:01.179Z,69.90
2023-01-12T15:21:53.111Z,69.80
2023-01-12T15:23:50.815Z,69.90
2023-01-12T15:25:38.244Z,70.00
2023-01-12T15:27:13.995Z,70.00
2023-01-12T15:28:49.475Z,70.10
2023-01-12T15:30:22.967Z,70.00
2023-01-12T15:31:56.498Z,69.90
2023-01-12T15:33:30.096Z,70.00
2023-01-12T15:35:14.539Z,70.10
2023-01-12T15:36:47.876Z,70.20
2023-01-12T15:38:21.536Z,69.90
2023-01-12T15:39:59.730Z,70.00
2023-01-12T15:41:47.427Z,70.00
2023-01-12T15:43:30.760Z,70.00
2023-01-12T15:45:04.206Z,70.00
2023-01-12T15:46:37.833Z,69.80
2023-01-12T15:48:11.553Z,69.90
2023-01-12T15:49:55.804Z,69.70
2023-01-12T15:51:29.171Z,69.80
2023-01-12T15:53:03.361Z,69.80
2023-01-12T15:54:36.918Z,69.80
2023-01-12T15:56:16.123Z,69.80
2023-01-12T15:57:50.796Z,69.80
2023-01-12T15:59:24.014Z,69.70
2023-01-12T16:00:57.276Z,69.60
2023-01-12T16:02:38.040Z,69.50
2023-01-12T16:04:41.567Z,69.80
2023-01-12T16:06:21.156Z,70.00
2023-01-12T16:07:55.306Z,69.70
2023-01-12T16:09:30.133Z,69.60
2023-01-12T16:11:13.481Z,69.60
2023-01-12T16:12:49.841Z,69.80
2023-01-12T16:14:23.061Z,69.90
2023-01-12T16:15:56.558Z,69.80
2023-01-12T16:17:29.815Z,69.70
2023-01-12T16:19:05.958Z,69.80
2023-01-12T16:20:39.301Z,70.00
2023-01-12T16:22:21.074Z,69.80
2023-01-12T16:23:57.485Z,70.00
2023-01-12T16:25:30.834Z,69.90
2023-01-12T16:27:04.183Z,70.00
2023-01-12T16:28:39.219Z,69.90
2023-01-12T16:30:16.106Z,69.80
2023-01-12T16:31:49.760Z,69.90
2023-01-12T16:33:23.599Z,69.90
2023-01-12T16:34:56.889Z,69.80
2023-01-12T16:36:30.211Z,69.90
2023-01-12T16:38:03.966Z,69.80
2023-01-12T16:39:37.294Z,69.70
2023-01-12T16:41:13.660Z,69.90
2023-01-12T16:42:46.990Z,69.90
2023-01-12T16:44:21.787Z,69.80
2023-01-12T16:45:55.124Z,69.90
2023-01-12T16:47:28.521Z,69.80
2023-01-12T16:49:04.059Z,69.80
2023-01-12T16:50:41.307Z,69.90
2023-01-12T16:52:18.891Z,70.00
2023-01-12T16:53:55.065Z,70.00
2023-01-12T16:55:28.457Z,69.90
2023-01-12T16:57:01.703Z,69.80
2023-01-12T16:58:34.923Z,69.80
2023-01-12T17:00:12.757Z,69.90
2023-01-12T17:01:51.666Z,70.60
2023-01-12T17:03:36.095Z,69.70
2023-01-12T17:05:10.926Z,69.70
2023-01-12T17:06:44.484Z,69.80
2023-01-12T17:08:17.700Z,69.70
2023-01-12T17:09:51.420Z,69.70
2023-01-12T17:11:25.846Z,69.80
2023-01-12T17:12:59.308Z,69.80
2023-01-12T17:14:34.702Z,70.60
2023-01-12T17:16:11.332Z,69.80
2023-01-12T17:17:44.781Z,69.90
2023-01-12T17:19:19.088Z,69.80
2023-01-12T17:21:01.686Z,69.90
2023-01-12T17:22:35.833Z,70.00
2023-01-12T17:24:11.857Z,69.90
2023-01-12T17:25:45.185Z,69.90
2023-01-12T17:27:20.018Z,69.90
2023-01-12T17:28:56.835Z,70.10
2023-01-12T17:30:30.854Z,70.30
2023-01-12T17:32:07.228Z,70.00
2023-01-12T17:33:51.991Z,70.10
2023-01-12T17:35:25.727Z,69.90
2023-01-12T17:37:04.095Z,70.00
2023-01-12T17:38:39.650Z,70.10
2023-01-12T17:40:13.654Z,70.20
2023-01-12T17:42:04.150Z,70.10
2023-01-12T17:43:38.883Z,70.00
2023-01-12T17:45:12.948Z,70.10
2023-01-12T17:46:47.844Z,70.10
2023-01-12T17:48:22.257Z,70.10
2023-01-12T17:49:55.967Z,70.40
2023-01-12T17:51:30.869Z,70.10
2023-01-12T17:53:10.130Z,70.20
2023-01-12T17:54:43.828Z,70.30
2023-01-12T17:56:17.975Z,70.30
2023-01-12T17:57:51.320Z,70.20
2023-01-12T17:59:24.804Z,70.10
2023-01-12T18:00:58.194Z,70.00
2023-01-12T18:02:32.052Z,70.10
2023-01-12T18:04:06.852Z,70.20
2023-01-12T18:05:42.438Z,70.20
2023-01-12T18:07:15.935Z,70.20
2023-01-12T18:08:51.676Z,70.10
2023-01-12T18:10:25.408Z,70.30
2023-01-12T18:12:00.180Z,70.30
2023-01-12T18:13:33.666Z,70.20
2023-01-12T18:15:09.106Z,70.20
2023-01-12T18:16:42.830Z,70.30
2023-01-12T18:18:17.138Z,70.20
2023-01-12T18:20:07.910Z,70.10
2023-01-12T18:21:43.929Z,70.30
2023-01-12T18:23:17.196Z,70.30
2023-01-12T18:24:50.454Z,70.20
2023-01-12T18:26:27.027Z,70.30
2023-01-12T18:28:00.851Z,70.20
2023-01-12T18:29:34.661Z,70.20
2023-01-12T18:31:11.406Z,70.20
2023-01-12T18:32:45.297Z,70.30
2023-01-12T18:34:19.150Z,70.20
2023-01-12T18:35:53.694Z,70.20
2023-01-12T18:37:27.020Z,70.20
2023-01-12T18:39:00.738Z,70.30
2023-01-12T18:40:34.219Z,70.20
2023-01-12T18:42:25.649Z,70.20
2023-01-12T18:44:02.714Z,70.10
2023-01-12T18:45:38.324Z,70.10
2023-01-12T18:47:33.192Z,70.30
2023-01-12T18:49:06.473Z,70.30
2023-01-12T18:50:57.464Z,70.10
2023-01-12T18:52:49.668Z,70.20
2023-01-12T18:54:24.122Z,70.10
2023-01-12T18:56:04.103Z,70.20
2023-01-12T18:57:38.205Z,70.10
2023-01-12T18:59:12.235Z,70.10
2023-01-12T19:00:46.924Z,70.10
2023-01-12T19:02:21.367Z,70.20
2023-01-12T19:03:54.741Z,70.20
2023-01-12T19:05:35.884Z,70.20
2023-01-12T19:07:12.095Z,70.10
2023-01-12T19:09:05.025Z,70.10
2023-01-12T19:10:38.204Z,70.10
2023-01-12T19:12:11.889Z,70.20
2023-01-12T19:14:03.022Z,70.10
2023-01-12T19:15:52.408Z,70.10
2023-01-12T19:17:29.643Z,70.10
2023-01-12T19:19:13.422Z,70.20
2023-01-12T19:20:46.584Z,70.40
2023-01-12T19:22:37.704Z,70.20
2023-01-12T19:24:30.198Z,70.10
2023-01-12T19:26:35.873Z,70.20
2023-01-12T19:28:31.383Z,70.30
2023-01-12T19:30:06.647Z,70.30
2023-01-12T19:31:39.943Z,70.40
2023-01-12T19:33:14.027Z,70.00
2023-01-12T19:34:49.224Z,70.30
2023-01-12T19:36:23.762Z,70.20
2023-01-12T19:37:57.064Z,70.10
2023-01-12T19:39:59.504Z,70.20
2023-01-12T19:41:51.245Z,70.20
2023-01-12T19:43:27.695Z,70.30
2023-01-12T19:45:01.869Z,70.40
2023-01-12T19:46:36.113Z,70.30
2023-01-12T19:48:11.314Z,70.30
2023-01-12T19:49:44.550Z,70.30
2023-01-12T19:51:27.930Z,70.20
2023-01-12T19:53:03.242Z,70.30
2023-01-12T19:54:37.889Z,70.20
2023-01-12T19:56:14.431Z,70.10
2023-01-12T19:57:47.759Z,70.40
2023-01-12T19:59:21.064Z,70.20
2023-01-12T20:00:55.983Z,70.00
2023-01-12T20:02:30.242Z,70.00
2023-01-12T20:04:04.063Z,70.00
2023-01-12T20:05:50.953Z,69.80
2023-01-12T20:07:24.364Z,70.10
2023-01-12T20:08:58.017Z,69.80
2023-01-12T20:10:35.368Z,70.00
2023-01-12T20:12:08.881Z,70.00
2023-01-12T20:13:43.946Z,69.90
2023-01-12T20:15:18.089Z,70.10
2023-01-12T20:16:51.478Z,69.80
2023-01-12T20:18:25.877Z,70.00
2023-01-12T20:19:59.208Z,70.10
2023-01-12T20:21:32.525Z,70.00
2023-01-12T20:23:05.735Z,69.90
2023-01-12T20:24:38.983Z,69.90
2023-01-12T20:26:15.504Z,69.90
2023-01-12T20:27:49.435Z,70.00
2023-01-12T20:29:23.520Z,70.10
2023-01-12T20:30:59.277Z,70.00
2023-01-12T20:32:41.710Z,69.90
2023-01-12T20:34:25.127Z,70.10
2023-01-12T20:35:58.351Z,70.00
2023-01-12T20:37:34.992Z,69.90
2023-01-12T20:39:10.956Z,70.10
2023-01-12T20:40:46.366Z,70.00
2023-01-12T20:42:21.112Z,70.10
2023-01-12T20:43:55.942Z,70.00
2023-01-12T20:45:30.070Z,70.10
2023-01-12T20:47:03.645Z,70.00
2023-01-12T20:48:37.186Z,69.80
2023-01-12T20:50:15.632Z,69.90
2023-01-12T20:51:49.444Z,69.90
2023-01-12T20:53:23.750Z,69.70
2023-01-12T20:54:57.213Z,69.70
2023-01-12T20:56:30.685Z,69.80
2023-01-12T20:58:06.468Z,69.80
2023-01-12T20:59:50.175Z,69.50
2023-01-12T21:01:25.615Z,69.60
2023-01-12T21:02:58.846Z,69.60
2023-01-12T21:04:33.487Z,69.60
2023-01-12T21:06:10.241Z,69.70
2023-01-12T21:07:43.632Z,69.70
2023-01-12T21:09:27.183Z,69.60
2023-01-12T21:11:00.504Z,69.70
2023-01-12T21:12:33.910Z,69.60
2023-01-12T21:14:08.556Z,69.70
2023-01-12T21:15:41.988Z,69.80
2023-01-12T21:17:16.636Z,69.80